Riverton, Nebraska
Current Conditions -  °F | °C
As of 1:35 AM on Wednesday 22 Oct 2014 (Local Time) from KHDE Reporting Station
Clear Clear  
Wind Chill: 60°   Ceiling: Unl
Heat Index: 60°   Visibility: 10mi
Dew Point: 55°   Wind: 5mph
Humidity: 83%   Direction: 160°SSE
Pressure: 29.96"   Gusts: NA
Location:  40.09°N, 98.76°W
Report Text: KHDE 220635Z AUTO 16004KT 10SM CLR 15/13 A2996 RMK AO2 T01540126
Loading
Personal Weather Stations






























Interactive Weather Map New forecast layout! Learn more

10-Day Weather Forecast

Advertisements
Track Severe Weather on mobile